• Join FlightAware (Why Join?)
  • Login
  • US Flag 
11:21AM EDT


 

Airport Tracker/Info


-or-


 

Live Flight TrackerFlight Track Log ✈ UAL4380 ✈ 17-Apr-2013 ✈ KIAH - KDAL

Flight Track Log - Related Links

Times and Time Zones

All times are in EDT time to prevent confusion due to time zone crossing. See the UAL4380 flight status page for this flight to view local times or setup timezone preferences in your user account.

Time Position Orientation Groundspeed Altitude Reporting Facility
EDT Latitude Longitude Course Direction KTS MPH feet Rate Location/Type
09:06AM 29.9783 -95.2958 North 165 190 800  Level Houston Center
09:07AM 30.0028 -95.2639 49° Northeast 243 280 2,000 1,800 Climbing Houston Center
09:08AM 30.0433 -95.2594 North 258 297 3,300 2,040 Climbing Houston Center
09:08AM 30.0778 -95.2594 360° North 310 357 4,100 1,620 Climbing Houston Center
09:09AM 30.2613 -95.4062 349° North  Level FlightAware Approximate
09:09AM 30.1189 -95.2764 340° North 275 316 5,000  Level Houston Center
09:10AM 30.3548 -95.4270 349° North  Level FlightAware Approximate
09:10AM 30.1944 -95.3150 336° Northwest 291 335 7,400  Level Houston Center
09:11AM 30.4476 -95.4517 346° North  Level FlightAware Approximate
09:11AM 30.2864 -95.3600 337° Northwest 299 344 10,100  Level Houston Center
09:12AM 30.5413 -95.4667 North  Level FlightAware Approximate
09:12AM 30.3667 -95.4006 336° Northwest 308 354 11,400  Level Houston Center
09:13AM 30.4544 -95.4419 338° Northwest 335 386 12,300 900 Climbing Houston Center
09:14AM 30.5519 -95.4803 341° North 366 421 13,300 900 Climbing Houston Center
09:15AM 30.6556 -95.5014 350° North 378 435 14,200 1,080 Climbing Houston Center
09:16AM 30.7603 -95.5258 349° North 386 444 15,600 1,500 Climbing Houston Center
09:17AM 30.8869 -95.5547 349° North 385 443 17,300 1,500 Climbing Houston Center
09:18AM 30.9911 -95.5778 349° North 380 437 18,800 1,260 Climbing Houston Center
09:19AM 31.0983 -95.6028 349° North 385 443 20,000 540 Climbing Houston Center
09:20AM 31.2122 -95.6281 349° North 400 460 20,000  Level Houston Center
09:21AM 31.2636 -95.6392 350° North 440 506 20,000  Level Fort Worth Center
09:22AM 31.3725 -95.6736 345° North 425 489 20,000  Level Fort Worth Center
09:23AM 31.4736 -95.7400 331° Northwest 413 475 20,000  Level Fort Worth Center
09:24AM 31.5789 -95.8089 331° Northwest 418 481 20,000  Level Fort Worth Center
09:25AM 31.6819 -95.8778 330° Northwest 426 490 20,000  Level Fort Worth Center
09:26AM 31.7811 -95.9447 330° Northwest 426 490 20,000  Level Fort Worth Center
09:27AM 31.8967 -96.0236 330° Northwest 426 490 20,000 -1,020 Level Fort Worth Center
09:28AM 31.9933 -96.0881 331° Northwest 414 476 18,000 -2,460 Descending Fort Worth Center
09:29AM 32.0817 -96.1481 330° Northwest 414 476 15,100 -2,700 Descending Fort Worth Center
09:30AM 32.1783 -96.2106 331° Northwest 404 465 12,600 -2,100 Descending Fort Worth Center
09:31AM 32.2686 -96.2683 332° Northwest 362 417 11,000 -1,680 Descending Fort Worth Center
09:32AM 32.3464 -96.3167 332° Northwest 325 374 9,300 -1,020 Descending Fort Worth Center
09:33AM 32.4197 -96.3600 333° Northwest 301 346 9,000 -180 Descending Fort Worth Center
09:34AM 32.4953 -96.4061 333° Northwest 301 346 9,000 -720 Level Fort Worth Center
09:35AM 32.5689 -96.4494 334° Northwest 301 346 7,600 -1,440 Descending Fort Worth Center
09:36AM 32.6422 -96.4956 332° Northwest 301 346 6,200 -1,320 Descending Fort Worth Center
09:37AM 32.7031 -96.5444 326° Northwest 301 346 5,000 -600 Descending Fort Worth Center
09:38AM 32.7828 -96.6031 328° Northwest 301 346 5,000  Level Fort Worth Center
09:39AM 32.8458 -96.6519 327° Northwest 306 352 5,000 -240 Level Fort Worth Center
09:39AM 32.9000 -96.7000 323° Northwest 298 343 4,600 -600 Descending Dallas / Fort Worth TRACON
09:40AM 32.9500 -96.7667 312° West 285 328 4,000 -360 Descending Dallas / Fort Worth TRACON
09:41AM 32.9833 -96.8500 296° West 265 305 3,900 -900 Descending Dallas / Fort Worth TRACON
09:42AM 32.9667 -96.9333 257° West 225 259 2,200 -960 Descending Dallas / Fort Worth TRACON
09:43AM 32.9167 -96.9333 180° South 178 205 1,900 -300 Descending Dallas / Fort Worth TRACON